createdAt,value
2019-02-26T00:00:49.625Z,98508.59
2019-02-26T00:03:19.385Z,98498.14
2019-02-26T00:05:43.010Z,98498.14
2019-02-26T00:08:08.840Z,98499.31
2019-02-26T00:10:37.124Z,98497.18
2019-02-26T00:13:02.501Z,98494.24
2019-02-26T00:15:31.315Z,98499.86
2019-02-26T00:17:56.100Z,98495.30
2019-02-26T00:20:21.934Z,98502.11
2019-02-26T00:22:47.772Z,98505.82
2019-02-26T00:25:15.481Z,98499.92
2019-02-26T00:27:41.358Z,98494.84
2019-02-26T00:30:48.850Z,98488.42
2019-02-26T00:33:14.690Z,98491.94
2019-02-26T00:35:41.620Z,98493.44
2019-02-26T00:38:08.965Z,98491.35
2019-02-26T00:40:37.139Z,98496.72
2019-02-26T00:43:04.771Z,98501.74
2019-02-26T00:45:32.327Z,98497.83
2019-02-26T00:47:59.140Z,98490.35
2019-02-26T00:50:24.971Z,98493.95
2019-02-26T00:52:52.329Z,98497.41
2019-02-26T00:55:18.579Z,98501.11
2019-02-26T00:57:44.438Z,98503.39
2019-02-26T01:00:30.854Z,98487.45
2019-02-26T01:02:57.886Z,98487.45
2019-02-26T01:05:23.728Z,98496.70
2019-02-26T01:07:52.110Z,98503.69
2019-02-26T01:10:20.618Z,98503.73
2019-02-26T01:12:45.033Z,98507.70
2019-02-26T01:15:52.507Z,98508.48
2019-02-26T01:18:20.117Z,98506.48
2019-02-26T01:20:48.334Z,98506.59
2019-02-26T01:23:13.820Z,98514.02
2019-02-26T01:25:39.640Z,98513.58
2019-02-26T01:28:05.490Z,98512.80
2019-02-26T01:30:33.724Z,98513.38
2019-02-26T01:33:00.567Z,98511.69
2019-02-26T01:35:28.855Z,98512.52
2019-02-26T01:37:55.771Z,98505.21
2019-02-26T01:40:25.230Z,98509.31
2019-02-26T01:42:52.273Z,98504.52
2019-02-26T01:45:19.510Z,98505.30
2019-02-26T01:47:48.263Z,98506.72
2019-02-26T01:50:15.743Z,98502.34
2019-02-26T01:52:41.113Z,98496.92
2019-02-26T01:55:50.455Z,98490.63
2019-02-26T01:58:16.765Z,98488.14
2019-02-26T02:00:44.078Z,98482.13
2019-02-26T02:03:09.918Z,98477.11
2019-02-26T02:05:35.727Z,98471.02
2019-02-26T02:08:01.550Z,98465.66
2019-02-26T02:10:27.357Z,98461.45
2019-02-26T02:12:55.186Z,98463.23
2019-02-26T02:15:42.250Z,98461.54
2019-02-26T02:18:08.650Z,98465.14
2019-02-26T02:20:34.461Z,98464.16
2019-02-26T02:23:00.913Z,98462.48
2019-02-26T02:25:31.065Z,98458.19
2019-02-26T02:27:57.498Z,98461.27
2019-02-26T02:30:30.278Z,98462.97
2019-02-26T02:32:54.354Z,98466.28
2019-02-26T02:35:19.616Z,98464.27
2019-02-26T02:37:46.623Z,98462.17
2019-02-26T02:43:07.966Z,98461.27
2019-02-26T02:45:34.545Z,98467.75
2019-02-26T02:48:02.923Z,98468.25
2019-02-26T02:50:28.098Z,98462.67
2019-02-26T02:52:56.096Z,98462.97
2019-02-26T02:55:21.651Z,98456.98
2019-02-26T02:57:51.885Z,98458.48
2019-02-26T03:02:53.773Z,98447.17
2019-02-26T03:05:20.164Z,98449.90
2019-02-26T03:07:50.433Z,98441.49
2019-02-26T03:10:13.912Z,98439.48
2019-02-26T03:12:39.901Z,98436.81
2019-02-26T03:15:48.382Z,98427.39
2019-02-26T03:18:16.916Z,98427.39
2019-02-26T03:20:42.842Z,98423.13
2019-02-26T03:23:11.420Z,98429.41
2019-02-26T03:25:36.408Z,98415.64
2019-02-26T03:28:02.237Z,98410.66
2019-02-26T03:30:36.924Z,98413.63
2019-02-26T03:33:00.317Z,98409.16
2019-02-26T03:35:23.897Z,98412.33
2019-02-26T03:37:54.136Z,98413.13
2019-02-26T03:40:20.809Z,98412.23
2019-02-26T03:42:46.749Z,98406.83
2019-02-26T03:45:54.232Z,98404.45
2019-02-26T03:48:20.564Z,98415.91
2019-02-26T03:50:47.771Z,98415.14
2019-02-26T03:53:13.599Z,98417.41
2019-02-26T03:55:41.433Z,98415.09
2019-02-26T03:58:07.168Z,98406.55
2019-02-26T04:00:34.730Z,98410.25
2019-02-26T04:03:00.714Z,98408.06
2019-02-26T04:05:26.552Z,98414.03
2019-02-26T04:07:55.596Z,98401.66
2019-02-26T04:10:20.315Z,98404.15
2019-02-26T04:12:48.735Z,98401.16
2019-02-26T04:15:36.342Z,98402.16
2019-02-26T04:18:01.550Z,98406.05
2019-02-26T04:20:27.957Z,98405.34
2019-02-26T04:22:56.843Z,98402.38
2019-02-26T04:26:02.551Z,98400.56
2019-02-26T04:29:10.064Z,98392.48
2019-02-26T04:32:18.953Z,98388.18
2019-02-26T04:34:51.233Z,98378.18
2019-02-26T04:37:30.705Z,98382.69
2019-02-26T04:40:12.047Z,98406.98
2019-02-26T04:42:50.116Z,98405.16
2019-02-26T04:45:36.151Z,98398.48
2019-02-26T04:48:06.086Z,98395.31
2019-02-26T04:50:35.062Z,98409.83
2019-02-26T04:53:02.029Z,98409.66
2019-02-26T04:55:29.714Z,98395.29
2019-02-26T04:57:56.299Z,98384.98
2019-02-26T05:00:23.607Z,98380.02
2019-02-26T05:02:50.042Z,98384.80
2019-02-26T05:05:15.916Z,98379.20
2019-02-26T05:07:44.488Z,98369.23
2019-02-26T05:10:09.674Z,98363.14
2019-02-26T05:12:37.950Z,98361.15
2019-02-26T05:15:04.921Z,98386.00
2019-02-26T05:17:33.263Z,98394.47
2019-02-26T05:19:58.631Z,98389.27
2019-02-26T05:22:27.256Z,98394.69
2019-02-26T05:24:52.881Z,98392.52
2019-02-26T05:27:22.165Z,98408.63
2019-02-26T05:29:48.956Z,98400.33
2019-02-26T05:32:14.392Z,98409.20
2019-02-26T05:34:42.780Z,98404.74
2019-02-26T05:37:11.002Z,98394.07
2019-02-26T05:39:35.879Z,98396.25
2019-02-26T05:42:03.948Z,98384.48
2019-02-26T05:44:29.522Z,98399.25
2019-02-26T05:46:56.799Z,98411.17
2019-02-26T05:49:23.165Z,98403.76
2019-02-26T05:51:49.047Z,98400.83
2019-02-26T05:54:18.028Z,98407.81
2019-02-26T05:56:43.585Z,98418.28
2019-02-26T05:59:13.312Z,98415.77
2019-02-26T06:01:38.682Z,98407.42
2019-02-26T06:04:06.774Z,98405.84
2019-02-26T06:06:32.283Z,98413.92
2019-02-26T06:08:59.989Z,98414.66
2019-02-26T06:11:28.366Z,98418.66
2019-02-26T06:13:56.311Z,98400.63
2019-02-26T06:16:22.529Z,98411.62
2019-02-26T06:18:51.905Z,98387.66
2019-02-26T06:21:18.981Z,98410.11
2019-02-26T06:24:27.179Z,98401.50
2019-02-26T06:26:54.268Z,98402.30
2019-02-26T06:29:24.432Z,98399.48
2019-02-26T06:31:49.424Z,98401.30
2019-02-26T06:34:16.325Z,98401.80
2019-02-26T06:36:44.322Z,98407.21
2019-02-26T06:39:11.027Z,98365.77
2019-02-26T06:41:39.593Z,98408.38
2019-02-26T06:44:04.575Z,98403.56
2019-02-26T06:46:31.916Z,98405.55
2019-02-26T06:48:58.170Z,98404.49
2019-02-26T06:51:26.023Z,98407.38
2019-02-26T06:53:54.101Z,98408.91
2019-02-26T06:56:19.445Z,98402.16
2019-02-26T07:01:40.105Z,98392.09
2019-02-26T07:04:07.030Z,98388.34
2019-02-26T07:06:34.834Z,98390.08
2019-02-26T07:09:00.561Z,98388.69
2019-02-26T07:11:28.025Z,98383.48
2019-02-26T07:13:54.113Z,98381.98
2019-02-26T07:16:20.699Z,98386.38
2019-02-26T07:18:47.676Z,98386.59
2019-02-26T07:21:13.520Z,98390.18
2019-02-26T07:23:40.049Z,98387.89
2019-02-26T07:26:07.069Z,98392.28
2019-02-26T07:28:32.998Z,98397.18
2019-02-26T07:31:00.438Z,98400.66
2019-02-26T07:33:27.403Z,98391.96
2019-02-26T07:35:56.577Z,98391.03
2019-02-26T07:38:23.101Z,98392.39
2019-02-26T07:40:49.806Z,98390.80
2019-02-26T07:43:17.902Z,98394.55
2019-02-26T07:45:43.360Z,98402.17
2019-02-26T07:48:09.271Z,98404.32
2019-02-26T07:50:39.714Z,98398.14
2019-02-26T07:53:02.850Z,98400.64
2019-02-26T07:55:48.559Z,98402.96
2019-02-26T07:58:15.582Z,98402.96
2019-02-26T08:00:45.310Z,98403.59
2019-02-26T08:03:09.870Z,98400.66
2019-02-26T08:05:35.688Z,98399.38
2019-02-26T08:08:01.498Z,98391.98
2019-02-26T08:10:27.329Z,98391.38
2019-02-26T08:12:53.176Z,98394.59
2019-02-26T08:16:02.469Z,98398.63
2019-02-26T08:18:28.366Z,98411.20
2019-02-26T08:20:56.799Z,98411.77
2019-02-26T08:23:23.700Z,98411.72
2019-02-26T08:25:52.015Z,98412.25
2019-02-26T08:28:18.539Z,98416.34
2019-02-26T08:30:47.471Z,98413.95
2019-02-26T08:33:12.882Z,98413.05
2019-02-26T08:35:38.764Z,98417.13
2019-02-26T08:40:38.419Z,98416.80
2019-02-26T08:43:04.276Z,98413.67
2019-02-26T08:45:50.164Z,98413.28
2019-02-26T08:48:35.906Z,98406.77
2019-02-26T08:51:05.356Z,98401.73
2019-02-26T08:53:31.478Z,98403.48
2019-02-26T08:55:58.890Z,98402.07
2019-02-26T08:58:25.743Z,98399.60
2019-02-26T09:00:52.697Z,98401.60
2019-02-26T09:03:20.413Z,98397.77
2019-02-26T09:05:46.268Z,98400.87
2019-02-26T09:08:14.017Z,98402.78
2019-02-26T09:10:41.350Z,98403.73
2019-02-26T09:13:09.358Z,98403.34
2019-02-26T09:15:56.444Z,98404.23
2019-02-26T09:18:27.473Z,98404.23
2019-02-26T09:20:50.736Z,98404.70
2019-02-26T09:23:20.876Z,98399.69
2019-02-26T09:25:48.581Z,98404.20
2019-02-26T09:28:12.073Z,98402.13
2019-02-26T09:30:39.014Z,98397.14
2019-02-26T09:33:06.380Z,98409.30
2019-02-26T09:35:33.633Z,98407.25
2019-02-26T09:38:00.973Z,98398.44
2019-02-26T09:40:29.242Z,98401.77
2019-02-26T09:42:58.128Z,98403.32
2019-02-26T09:45:43.569Z,98407.04
2019-02-26T09:48:12.280Z,98412.71
2019-02-26T09:50:38.578Z,98414.39
2019-02-26T09:53:25.995Z,98408.37
2019-02-26T09:55:51.974Z,98408.37
2019-02-26T09:58:20.058Z,98407.34
2019-02-26T10:01:06.822Z,98406.05
2019-02-26T10:03:38.556Z,98406.05
2019-02-26T10:06:01.249Z,98413.78
2019-02-26T10:08:28.145Z,98417.38
2019-02-26T10:10:56.931Z,98410.34
2019-02-26T10:13:24.988Z,98410.34
2019-02-26T10:15:50.538Z,98414.34
2019-02-26T10:18:16.371Z,98403.13
2019-02-26T10:20:43.322Z,98421.63
2019-02-26T10:23:09.994Z,98414.94
2019-02-26T10:25:38.673Z,98414.94
2019-02-26T10:28:08.824Z,98407.55
2019-02-26T10:30:33.933Z,98407.55
2019-02-26T10:33:02.739Z,98405.69
2019-02-26T10:35:33.371Z,98405.64
2019-02-26T10:37:59.715Z,98401.94
2019-02-26T10:40:34.232Z,98398.52
2019-02-26T10:42:52.950Z,98401.37
2019-02-26T10:45:30.651Z,98398.83
2019-02-26T10:47:58.730Z,98408.04
2019-02-26T10:50:31.047Z,98405.09
2019-02-26T10:52:57.777Z,98401.88
2019-02-26T10:55:24.277Z,98346.75
2019-02-26T10:57:49.238Z,98346.75
2019-02-26T11:00:18.607Z,98393.33
2019-02-26T11:02:46.155Z,98405.06
2019-02-26T11:05:14.295Z,98392.72
2019-02-26T11:07:40.220Z,98393.37
2019-02-26T11:10:08.205Z,98396.89
2019-02-26T11:12:34.131Z,98397.31
2019-02-26T11:15:01.619Z,98397.31
2019-02-26T11:17:28.935Z,98389.61
2019-02-26T11:19:58.051Z,98382.98
2019-02-26T11:22:25.180Z,98382.98
2019-02-26T11:24:53.302Z,98370.70
2019-02-26T11:27:18.727Z,98361.77
2019-02-26T11:29:44.619Z,98361.77
2019-02-26T11:32:12.949Z,98360.38
2019-02-26T11:34:38.437Z,98342.60
2019-02-26T11:37:08.661Z,98342.60
2019-02-26T11:39:32.099Z,98344.54
2019-02-26T11:41:59.510Z,98349.67
2019-02-26T11:44:27.625Z,98126.93
2019-02-26T11:46:54.382Z,98350.34
2019-02-26T11:49:21.819Z,98346.30
2019-02-26T11:51:47.846Z,98343.35
2019-02-26T11:54:15.045Z,98330.22
2019-02-26T11:56:44.097Z,98330.22
2019-02-26T11:59:11.725Z,98177.98
2019-02-26T12:01:39.432Z,98339.51
2019-02-26T12:04:06.042Z,98341.89
2019-02-26T12:06:32.750Z,98332.86
2019-02-26T12:08:58.627Z,98322.63
2019-02-26T12:11:24.477Z,98327.41
2019-02-26T12:13:53.039Z,98322.97
2019-02-26T12:16:18.090Z,98319.19
2019-02-26T12:18:45.005Z,98318.75
2019-02-26T12:21:12.916Z,98315.78
2019-02-26T12:23:39.728Z,98314.67
2019-02-26T12:26:06.886Z,98313.41
2019-02-26T12:28:37.183Z,98307.99
2019-02-26T12:31:01.261Z,98296.55
2019-02-26T12:33:32.206Z,98298.42
2019-02-26T12:35:58.983Z,98300.34
2019-02-26T12:38:23.831Z,98297.14
2019-02-26T12:40:50.759Z,98296.43
2019-02-26T12:43:19.160Z,98290.70
2019-02-26T12:45:45.377Z,98286.20
2019-02-26T12:48:14.229Z,98280.50
2019-02-26T12:50:40.406Z,98282.20
2019-02-26T12:53:09.526Z,98271.08
2019-02-26T12:55:35.893Z,98268.48
2019-02-26T12:58:02.282Z,98266.10
2019-02-26T13:00:28.137Z,98244.55
2019-02-26T13:02:54.036Z,98242.22
2019-02-26T13:05:22.943Z,98249.77
2019-02-26T13:07:47.859Z,98238.02
2019-02-26T13:10:22.298Z,98236.52
2019-02-26T13:12:52.725Z,98049.45
2019-02-26T13:15:19.303Z,98215.78
2019-02-26T13:17:48.883Z,98225.70
2019-02-26T13:20:22.819Z,98219.30
2019-02-26T13:22:48.802Z,98223.02
2019-02-26T13:27:45.292Z,98221.43
2019-02-26T13:30:13.529Z,98214.70
2019-02-26T13:32:55.353Z,98218.28
2019-02-26T13:35:09.211Z,98223.38
2019-02-26T13:37:36.589Z,98221.59
2019-02-26T13:40:09.413Z,98224.47
2019-02-26T13:42:37.316Z,98223.47
2019-02-26T13:45:06.890Z,98225.45
2019-02-26T13:47:32.873Z,98226.38
2019-02-26T13:49:58.743Z,98220.94
2019-02-26T13:52:24.628Z,98226.00
2019-02-26T13:54:50.633Z,98211.42
2019-02-26T13:57:16.554Z,98062.72
2019-02-26T13:59:42.390Z,98232.05
2019-02-26T14:02:08.225Z,98222.38
2019-02-26T14:04:34.145Z,98236.66
2019-02-26T14:06:59.993Z,98233.47
2019-02-26T14:09:25.878Z,98230.45
2019-02-26T14:11:51.828Z,98240.52
2019-02-26T14:14:17.684Z,98233.53
2019-02-26T14:16:43.778Z,98229.91
2019-02-26T14:19:09.641Z,98223.22
2019-02-26T14:21:35.489Z,98221.23
2019-02-26T14:24:01.357Z,98227.22
2019-02-26T14:26:42.167Z,98224.59
2019-02-26T14:29:08.265Z,98218.66
2019-02-26T14:31:37.077Z,98212.33
2019-02-26T14:34:13.035Z,98210.44
2019-02-26T14:36:39.246Z,98219.02
2019-02-26T14:39:06.713Z,98209.29
2019-02-26T14:41:40.798Z,98198.44
2019-02-26T14:44:07.218Z,98203.55
2019-02-26T14:46:33.576Z,98205.51
2019-02-26T14:49:00.111Z,98197.20
2019-02-26T14:51:28.350Z,98198.41
2019-02-26T14:53:54.609Z,98197.03
2019-02-26T14:56:20.526Z,98187.98
2019-02-26T14:58:48.279Z,98194.42
2019-02-26T15:01:14.316Z,98197.91
2019-02-26T15:03:44.746Z,98197.13
2019-02-26T15:06:19.820Z,98189.55
2019-02-26T15:08:46.091Z,98199.80
2019-02-26T15:11:12.171Z,98182.45
2019-02-26T15:13:38.545Z,98192.59
2019-02-26T15:16:04.389Z,98179.69
2019-02-26T15:18:31.102Z,98173.15
2019-02-26T15:20:57.052Z,98161.88
2019-02-26T15:23:22.958Z,98173.95
2019-02-26T15:25:48.827Z,98163.06
2019-02-26T15:28:14.687Z,98178.63
2019-02-26T15:30:40.681Z,98181.25
2019-02-26T15:33:11.171Z,98186.73
2019-02-26T15:35:34.532Z,97922.34
2019-02-26T15:38:00.452Z,98154.59
2019-02-26T15:40:26.338Z,98154.59
2019-02-26T15:42:54.388Z,98161.80
2019-02-26T15:45:23.945Z,98164.61
2019-02-26T15:47:50.496Z,98160.73
2019-02-26T15:50:17.784Z,98157.72
2019-02-26T15:52:43.782Z,98157.00
2019-02-26T15:55:17.917Z,98150.56
2019-02-26T15:57:43.813Z,98151.17
2019-02-26T16:00:15.950Z,98152.41
2019-02-26T16:02:43.748Z,97949.81
2019-02-26T16:05:10.181Z,98139.83
2019-02-26T16:07:36.154Z,98150.22
2019-02-26T16:10:02.514Z,98144.59
2019-02-26T16:12:28.450Z,98158.81
2019-02-26T16:14:54.351Z,98151.49
2019-02-26T16:17:20.197Z,98149.55
2019-02-26T16:19:46.120Z,98154.39
2019-02-26T16:22:11.988Z,98151.58
2019-02-26T16:24:37.896Z,98153.20
2019-02-26T16:27:04.029Z,98153.74
2019-02-26T16:29:30.197Z,98167.58
2019-02-26T16:31:57.305Z,98162.59
2019-02-26T16:34:23.566Z,98167.52
2019-02-26T16:36:49.459Z,98165.23
2019-02-26T16:42:17.147Z,98174.02
2019-02-26T16:44:46.888Z,98171.23
2019-02-26T16:47:15.421Z,98170.81
2019-02-26T16:49:51.713Z,98172.13
2019-02-26T16:52:18.588Z,98173.13
2019-02-26T16:54:46.563Z,98173.69
2019-02-26T16:57:30.942Z,98175.36
2019-02-26T16:59:56.999Z,98181.58
2019-02-26T17:02:27.208Z,98185.64
2019-02-26T17:04:51.664Z,98187.89
2019-02-26T17:07:20.219Z,98188.88
2019-02-26T17:09:46.711Z,98189.80
2019-02-26T17:12:13.084Z,98184.50
2019-02-26T17:14:39.616Z,98185.45
2019-02-26T17:17:06.014Z,98189.69
2019-02-26T17:19:31.974Z,98042.55
2019-02-26T17:22:01.800Z,98202.05
2019-02-26T17:24:29.561Z,98208.80
2019-02-26T17:26:55.588Z,98203.58
2019-02-26T17:29:22.185Z,98214.28
2019-02-26T17:31:48.183Z,98206.38
2019-02-26T17:34:14.235Z,98206.06
2019-02-26T17:36:40.072Z,98215.60
2019-02-26T17:46:38.221Z,98205.88
2019-02-26T17:47:41.348Z,98205.88
2019-02-26T17:50:28.650Z,98202.09
2019-02-26T17:53:17.380Z,98202.09
2019-02-26T17:55:34.858Z,98197.38
2019-02-26T17:58:04.325Z,98194.02
2019-02-26T18:00:33.875Z,98190.42
2019-02-26T18:03:15.450Z,98190.42
2019-02-26T18:11:24.392Z,98201.95
2019-02-26T18:14:00.208Z,98198.21
2019-02-26T18:16:26.622Z,98188.55
2019-02-26T18:18:52.498Z,98188.55
2019-02-26T18:21:18.524Z,98199.71
2019-02-26T18:23:44.425Z,98205.82
2019-02-26T18:26:10.305Z,98194.02
2019-02-26T18:28:36.879Z,98207.24
2019-02-26T18:31:02.929Z,98198.97
2019-02-26T18:33:28.807Z,98198.97
2019-02-26T18:35:54.647Z,98206.61
2019-02-26T18:38:20.508Z,98200.28
2019-02-26T18:40:46.596Z,98199.25
2019-02-26T18:43:14.427Z,98190.25
2019-02-26T18:45:43.847Z,98186.05
2019-02-26T18:48:09.759Z,98186.05
2019-02-26T18:50:35.714Z,98184.73
2019-02-26T18:53:01.630Z,98202.63
2019-02-26T18:55:30.232Z,98196.61
2019-02-26T18:57:55.503Z,98176.82
2019-02-26T19:00:25.894Z,98174.72
2019-02-26T19:02:51.617Z,98174.72
2019-02-26T19:05:21.113Z,98174.20
2019-02-26T19:07:48.393Z,98184.70
2019-02-26T19:10:19.404Z,98176.55
2019-02-26T19:12:44.001Z,98176.55
2019-02-26T19:15:20.449Z,98172.88
2019-02-26T19:17:49.145Z,98177.35
2019-02-26T19:20:26.741Z,98172.60
2019-02-26T19:22:52.763Z,98172.60
2019-02-26T19:25:21.809Z,98168.12
2019-02-26T19:27:53.179Z,98183.93
2019-02-26T19:30:22.099Z,98144.70
2019-02-26T19:32:52.016Z,98155.21
2019-02-26T19:35:19.831Z,98167.36
2019-02-26T19:37:52.736Z,98151.79
2019-02-26T19:40:25.413Z,98151.79
2019-02-26T19:42:52.892Z,98168.94
2019-02-26T19:45:19.182Z,98148.89
2019-02-26T19:47:49.219Z,98148.89
2019-02-26T19:50:15.888Z,98161.77
2019-02-26T19:52:42.066Z,98161.77
2019-02-26T19:55:12.877Z,98154.34
2019-02-26T19:57:46.566Z,98154.34
2019-02-26T20:00:14.185Z,98149.37
2019-02-26T20:02:43.628Z,98146.16
2019-02-26T20:05:13.901Z,98145.33
2019-02-26T20:07:40.626Z,98144.84
2019-02-26T20:10:15.769Z,98140.97
2019-02-26T20:12:44.670Z,98135.71
2019-02-26T20:15:13.333Z,98135.14
2019-02-26T20:17:39.886Z,98131.22
2019-02-26T20:20:12.276Z,98126.45
2019-02-26T20:22:38.789Z,98126.45
2019-02-26T20:25:08.215Z,98120.63
2019-02-26T20:27:36.048Z,98126.86
2019-02-26T20:30:05.349Z,98126.86
2019-02-26T20:32:31.658Z,98122.59
2019-02-26T20:34:57.933Z,98122.53
2019-02-26T20:37:26.341Z,98122.53
2019-02-26T20:39:53.094Z,98145.58
2019-02-26T20:42:19.103Z,98130.20
2019-02-26T20:44:45.472Z,98142.28
2019-02-26T20:47:11.398Z,98142.28
2019-02-26T20:49:37.275Z,97918.63
2019-02-26T20:52:03.181Z,98146.73
2019-02-26T20:54:29.127Z,98139.85
2019-02-26T21:08:30.731Z,98125.55
2019-02-26T21:14:21.149Z,98130.67
2019-02-26T21:17:20.792Z,98135.93
2019-02-26T21:31:19.630Z,98169.25
2019-02-26T21:44:28.464Z,98180.16
2019-02-26T21:46:56.188Z,98159.46
2019-02-26T21:49:22.214Z,98156.28
2019-02-26T21:51:48.087Z,98156.28
2019-02-26T21:54:13.965Z,98168.34
2019-02-26T21:56:39.821Z,98174.92
2019-02-26T21:59:05.667Z,98179.27
2019-02-26T22:01:31.560Z,98173.22
2019-02-26T22:03:58.465Z,98157.66
2019-02-26T22:06:25.041Z,98171.16
2019-02-26T22:08:50.970Z,98155.77
2019-02-26T22:11:18.621Z,98173.51
2019-02-26T22:13:44.575Z,98176.42
2019-02-26T22:16:10.486Z,98181.45
2019-02-26T22:18:36.379Z,98181.95
2019-02-26T22:21:02.287Z,98187.29
2019-02-26T22:23:29.382Z,98186.05
2019-02-26T22:25:55.550Z,98196.11
2019-02-26T22:28:23.003Z,98185.58
2019-02-26T22:30:48.979Z,97977.08
2019-02-26T22:33:14.878Z,98176.50
2019-02-26T22:35:40.741Z,98176.50
2019-02-26T22:38:06.650Z,98188.76
2019-02-26T22:40:34.225Z,98173.88
2019-02-26T22:43:00.204Z,98162.61
2019-02-26T22:45:27.967Z,98162.61
2019-02-26T22:47:53.891Z,98164.94
2019-02-26T22:50:19.762Z,98164.94
2019-02-26T22:52:45.657Z,98164.03
2019-02-26T22:55:17.561Z,98160.86
2019-02-26T22:57:43.737Z,98157.73
2019-02-26T23:00:50.223Z,98171.83
2019-02-26T23:03:16.131Z,98158.59
2019-02-26T23:05:41.991Z,98158.59
2019-02-26T23:08:09.611Z,98163.01
2019-02-26T23:10:35.610Z,98158.72
2019-02-26T23:13:01.449Z,98167.17
2019-02-26T23:15:27.852Z,98135.14
2019-02-26T23:17:58.127Z,98141.00
2019-02-26T23:20:21.610Z,98141.00
2019-02-26T23:23:02.845Z,98148.48
2019-02-26T23:25:29.217Z,98150.68
2019-02-26T23:27:55.097Z,98161.14
2019-02-26T23:30:21.162Z,98152.81
2019-02-26T23:32:47.014Z,98158.11
2019-02-26T23:35:13.480Z,98153.61
2019-02-26T23:37:39.377Z,98139.35
2019-02-26T23:40:07.935Z,98157.90
2019-02-26T23:42:33.809Z,98144.95
2019-02-26T23:44:59.656Z,98144.95
2019-02-26T23:47:51.416Z,98152.64
2019-02-26T23:50:17.283Z,98152.33
2019-02-26T23:52:43.140Z,98154.59
2019-02-26T23:55:13.119Z,98159.31
2019-02-26T23:57:37.576Z,98150.67
